CheckWX is a tool to help pilots better visualize weather data.  It is not intended as a substitute for an official pre-flight weather briefing.

18:05:53 UTC

KMGW TAF
Morgantown Municipal-Walter L Bill Hart Field Airport
Morgantown, West Virginia, USA
KMGW 241720Z 2418/2518 28005KT P6SM BKN250 FM250800 VRB03KT P6SM VCSH BKN050 FM251000 VRB03KT 6SM -SHRA BKN035 FM251600 17005KT 6SM -SHRA BKN025

Apr-24@
18:00 UTC

Apr-24 @ 18:00 UTC

Apr-25@
08:00 UTC

Apr-25 @ 08:00 UTC

KMGW 241720Z 2418/2518 28005KT P6SM BKN250
Wind
  • 280° at 5 KTS
Cloud Levels
  • Broken at 25,000' AGL

Apr-25@
08:00 UTC

Apr-25 @ 08:00 UTC

Apr-25@
10:00 UTC

Apr-25 @ 10:00 UTC

FM250800 VRB03KT P6SM VCSH BKN050

From

From Standard forecast or significant change

Wind
  • Variable at 3 KTS
Cloud Levels
  • Broken at 5,000' AGL

Apr-25@
10:00 UTC

Apr-25 @ 10:00 UTC

Apr-25@
16:00 UTC

Apr-25 @ 16:00 UTC

FM251000 VRB03KT 6SM -SHRA BKN035

From

From Standard forecast or significant change

Wind
  • Variable at 3 KTS
Conditions
Light Rain
Cloud Levels
  • Broken at 3,500' AGL

Apr-25@
16:00 UTC

Apr-25 @ 16:00 UTC

Apr-25@
18:00 UTC

Apr-25 @ 18:00 UTC

FM251600 17005KT 6SM -SHRA BKN025

From

From Standard forecast or significant change

Wind
  • 170° at 5 KTS
Conditions
Light Rain
Cloud Levels
  • Broken at 2,500' AGL